createdAt,value
2023-04-25T00:01:05.385Z,98492.55
2023-04-25T00:03:52.129Z,98493.76
2023-04-25T00:06:41.055Z,98493.92
2023-04-25T00:09:28.703Z,98487.93
2023-04-25T00:12:16.077Z,98484.86
2023-04-25T00:15:03.485Z,98481.77
2023-04-25T00:17:53.482Z,98477.55
2023-04-25T00:20:42.497Z,98472.09
2023-04-25T00:23:29.412Z,98469.98
2023-04-25T00:26:15.990Z,98468.13
2023-04-25T00:29:03.388Z,98470.35
2023-04-25T00:31:50.216Z,98472.11
2023-04-25T00:34:36.872Z,98476.01
2023-04-25T00:37:23.797Z,98475.09
2023-04-25T00:40:10.952Z,98477.64
2023-04-25T00:42:57.845Z,98475.33
2023-04-25T00:45:47.819Z,98474.52
2023-04-25T00:48:34.600Z,98473.55
2023-04-25T00:51:22.541Z,98473.20
2023-04-25T00:54:12.921Z,98472.20
2023-04-25T00:57:01.361Z,98472.08
2023-04-25T00:59:48.537Z,98473.79
2023-04-25T01:02:36.386Z,98473.23
2023-04-25T01:05:23.468Z,98468.92
2023-04-25T01:08:10.925Z,98476.23
2023-04-25T01:10:57.680Z,98480.68
2023-04-25T01:13:44.783Z,98479.55
2023-04-25T01:16:33.669Z,98480.02
2023-04-25T01:19:20.651Z,98476.36
2023-04-25T01:22:07.493Z,98476.09
2023-04-25T01:24:54.135Z,98476.73
2023-04-25T01:27:41.304Z,98477.63
2023-04-25T01:30:30.249Z,98480.27
2023-04-25T01:33:17.648Z,98481.09
2023-04-25T01:36:05.443Z,98480.11
2023-04-25T01:38:52.785Z,98476.45
2023-04-25T01:41:39.400Z,98480.31
2023-04-25T01:44:26.742Z,98480.89
2023-04-25T01:47:13.948Z,98480.20
2023-04-25T01:50:00.632Z,98475.75
2023-04-25T01:52:50.035Z,98480.75
2023-04-25T01:55:36.848Z,98484.85
2023-04-25T01:58:29.853Z,98484.02
2023-04-25T02:01:32.994Z,98487.23
2023-04-25T02:04:32.182Z,98489.66
2023-04-25T02:07:19.487Z,98489.74
2023-04-25T02:10:13.733Z,98493.66
2023-04-25T02:13:15.629Z,98491.52
2023-04-25T02:16:17.800Z,98492.48
2023-04-25T02:19:05.585Z,98491.21
2023-04-25T02:21:52.696Z,98493.58
2023-04-25T02:24:40.679Z,98496.30
2023-04-25T02:27:27.392Z,98499.67
2023-04-25T02:30:14.296Z,98500.02
2023-04-25T02:33:01.330Z,98499.27
2023-04-25T02:35:50.098Z,98501.34
2023-04-25T02:38:36.971Z,98502.16
2023-04-25T02:41:24.100Z,98502.80
2023-04-25T02:44:10.788Z,98500.60
2023-04-25T02:46:58.437Z,98497.73
2023-04-25T02:49:46.014Z,98500.60
2023-04-25T02:52:32.614Z,98498.08
2023-04-25T02:55:28.307Z,98499.14
2023-04-25T02:58:16.032Z,98496.55
2023-04-25T03:01:10.136Z,98498.10
2023-04-25T03:03:57.242Z,98494.28
2023-04-25T03:06:44.749Z,98494.59
2023-04-25T03:09:33.528Z,98493.40
2023-04-25T03:12:20.229Z,98492.95
2023-04-25T03:15:07.721Z,98495.71
2023-04-25T03:17:54.968Z,98494.78
2023-04-25T03:20:43.422Z,98501.23
2023-04-25T03:23:30.844Z,98517.26
2023-04-25T03:26:18.669Z,98522.21
2023-04-25T03:29:05.872Z,98521.99
2023-04-25T03:31:54.309Z,98527.59
2023-04-25T03:34:41.864Z,98528.20
2023-04-25T03:37:29.600Z,98534.19
2023-04-25T03:40:16.424Z,98533.39
2023-04-25T03:43:31.817Z,98537.05
2023-04-25T03:46:22.019Z,98535.29
2023-04-25T03:49:08.591Z,98535.84
2023-04-25T03:52:11.831Z,98533.90
2023-04-25T03:54:59.463Z,98532.44
2023-04-25T03:57:46.340Z,98530.86
2023-04-25T04:00:33.130Z,98532.61
2023-04-25T04:03:22.172Z,98534.59
2023-04-25T04:06:10.693Z,98536.16
2023-04-25T04:09:00.563Z,98537.94
2023-04-25T04:11:48.689Z,98540.99
2023-04-25T04:14:35.909Z,98539.27
2023-04-25T04:17:22.680Z,98541.27
2023-04-25T04:20:10.349Z,98542.91
2023-04-25T04:22:58.722Z,98542.27
2023-04-25T04:25:47.340Z,98549.55
2023-04-25T04:28:56.792Z,98552.17
2023-04-25T04:32:01.629Z,98558.40
2023-04-25T04:34:49.547Z,98558.55
2023-04-25T04:37:37.359Z,98560.16
2023-04-25T04:40:25.929Z,98560.23
2023-04-25T04:43:24.893Z,98562.35
2023-04-25T04:46:22.356Z,98561.88
2023-04-25T04:49:31.763Z,98564.37
2023-04-25T04:52:48.886Z,98556.30
2023-04-25T04:55:58.292Z,98553.61
2023-04-25T04:59:13.809Z,98555.05
2023-04-25T05:02:07.745Z,98554.38
2023-04-25T05:05:09.566Z,98557.97
2023-04-25T05:08:09.910Z,98560.06
2023-04-25T05:11:26.361Z,98560.87
2023-04-25T05:14:24.495Z,98564.85
2023-04-25T05:17:33.293Z,98560.27
2023-04-25T05:20:37.740Z,98566.55
2023-04-25T05:23:43.960Z,98566.39
2023-04-25T05:26:50.669Z,98567.80
2023-04-25T05:29:55.404Z,98566.09
2023-04-25T05:32:48.883Z,98570.46
2023-04-25T05:35:35.429Z,98572.48
2023-04-25T05:38:22.126Z,98571.44
2023-04-25T05:41:32.071Z,98576.36
2023-04-25T05:44:22.305Z,98580.55
2023-04-25T05:47:29.218Z,98582.91
2023-04-25T05:50:33.531Z,98593.16
2023-04-25T05:53:24.176Z,98597.13
2023-04-25T05:56:19.519Z,98601.08
2023-04-25T05:59:08.124Z,98604.01
2023-04-25T06:01:56.321Z,98605.73
2023-04-25T06:04:43.163Z,98610.77
2023-04-25T06:07:31.838Z,98611.72
2023-04-25T06:10:18.841Z,98606.95
2023-04-25T06:13:06.154Z,98604.89
2023-04-25T06:15:54.038Z,98602.45
2023-04-25T06:18:40.568Z,98604.31
2023-04-25T06:21:27.844Z,98601.94
2023-04-25T06:24:14.558Z,98602.94
2023-04-25T06:27:01.601Z,98607.30
2023-04-25T06:29:50.148Z,98612.04
2023-04-25T06:32:37.364Z,98613.20
2023-04-25T06:35:24.182Z,98616.17
2023-04-25T06:38:10.845Z,98615.94
2023-04-25T06:40:58.236Z,98613.05
2023-04-25T06:43:45.588Z,98614.95
2023-04-25T06:46:48.714Z,98613.17
2023-04-25T06:49:35.646Z,98610.66
2023-04-25T06:52:22.817Z,98618.91
2023-04-25T06:55:10.088Z,98615.01
2023-04-25T06:58:12.616Z,98615.02
2023-04-25T07:01:11.410Z,98613.48
2023-04-25T07:03:58.413Z,98614.20
2023-04-25T07:06:47.755Z,98616.44
2023-04-25T07:09:36.561Z,98619.02
2023-04-25T07:12:23.423Z,98619.89
2023-04-25T07:15:12.022Z,98615.05
2023-04-25T07:18:00.452Z,98614.98
2023-04-25T07:20:47.420Z,98613.98
2023-04-25T07:23:34.250Z,98616.27
2023-04-25T07:26:23.306Z,98621.59
2023-04-25T07:29:30.756Z,98620.00
2023-04-25T07:32:19.245Z,98622.89
2023-04-25T07:35:08.237Z,98627.63
2023-04-25T07:37:55.584Z,98628.83
2023-04-25T07:40:43.578Z,98624.73
2023-04-25T07:43:33.908Z,98624.59
2023-04-25T07:46:20.478Z,98625.58
2023-04-25T07:49:08.575Z,98625.19
2023-04-25T07:51:55.484Z,98629.05
2023-04-25T07:54:43.492Z,98634.36
2023-04-25T07:57:35.431Z,98634.14
2023-04-25T08:00:23.393Z,98635.50
2023-04-25T08:03:11.141Z,98644.20
2023-04-25T08:05:58.263Z,98646.36
2023-04-25T08:08:46.069Z,98644.77
2023-04-25T08:11:33.907Z,98647.23
2023-04-25T08:14:20.897Z,98653.20
2023-04-25T08:17:08.507Z,98657.84
2023-04-25T08:19:59.970Z,98656.77
2023-04-25T08:22:49.260Z,98660.70
2023-04-25T08:25:55.889Z,98663.45
2023-04-25T08:28:44.766Z,98666.25
2023-04-25T08:31:32.484Z,98672.58
2023-04-25T08:34:21.102Z,98677.91
2023-04-25T08:37:10.353Z,98681.16
2023-04-25T08:40:07.521Z,98683.17
2023-04-25T08:43:11.691Z,98687.13
2023-04-25T08:46:02.086Z,98685.77
2023-04-25T08:49:02.789Z,98698.65
2023-04-25T08:51:52.135Z,98700.38
2023-04-25T08:54:48.944Z,98703.35
2023-04-25T08:57:36.337Z,98703.55
2023-04-25T09:00:23.336Z,98713.77
2023-04-25T09:03:11.283Z,98714.20
2023-04-25T09:05:58.478Z,98719.16
2023-04-25T09:08:44.889Z,98721.45
2023-04-25T09:11:33.011Z,98722.06
2023-04-25T09:14:23.485Z,98726.51
2023-04-25T09:17:20.458Z,98731.70
2023-04-25T09:20:14.262Z,98734.83
2023-04-25T09:23:07.015Z,98736.19
2023-04-25T09:25:55.376Z,98738.02
2023-04-25T09:28:43.491Z,98731.00
2023-04-25T09:31:30.161Z,98730.39
2023-04-25T09:34:21.484Z,98733.15
2023-04-25T09:37:21.846Z,98735.33
2023-04-25T09:40:26.988Z,98736.86
2023-04-25T09:43:25.392Z,98739.67
2023-04-25T09:46:12.235Z,98743.09
2023-04-25T09:49:08.555Z,98745.96
2023-04-25T09:52:04.641Z,98750.13
2023-04-25T09:54:57.578Z,98754.62
2023-04-25T09:57:55.081Z,98752.98
2023-04-25T10:00:41.716Z,98754.84
2023-04-25T10:03:36.282Z,98758.51
2023-04-25T10:06:56.339Z,98755.77
2023-04-25T10:09:46.101Z,98764.43
2023-04-25T10:12:34.586Z,98766.42
2023-04-25T10:15:22.875Z,98773.98
2023-04-25T10:18:10.066Z,98773.48
2023-04-25T10:21:02.270Z,98780.36
2023-04-25T10:23:50.168Z,98788.14
2023-04-25T10:26:36.672Z,98782.91
2023-04-25T10:29:25.461Z,98783.83
2023-04-25T10:32:12.412Z,98786.38
2023-04-25T10:35:24.818Z,98786.20
2023-04-25T10:38:14.774Z,98786.06
2023-04-25T10:41:08.673Z,98786.17
2023-04-25T10:44:03.836Z,98790.31
2023-04-25T10:46:50.735Z,98791.33
2023-04-25T10:49:43.163Z,98793.05
2023-04-25T10:52:30.212Z,98794.00
2023-04-25T10:55:16.800Z,98793.67
2023-04-25T10:58:04.057Z,98788.96
2023-04-25T11:03:44.664Z,98789.66
2023-04-25T11:06:58.142Z,98790.54
2023-04-25T11:09:50.671Z,98794.26
2023-04-25T11:12:37.293Z,98793.40
2023-04-25T11:15:25.484Z,98793.67
2023-04-25T11:18:17.512Z,98795.70
2023-04-25T11:21:04.378Z,98798.33
2023-04-25T11:23:50.745Z,98799.67
2023-04-25T11:26:38.015Z,98801.48
2023-04-25T11:29:28.519Z,98804.75
2023-04-25T11:32:19.793Z,98812.64
2023-04-25T11:35:08.952Z,98816.54
2023-04-25T11:37:56.892Z,98812.15
2023-04-25T11:40:43.268Z,98817.33
2023-04-25T11:43:29.436Z,98821.95
2023-04-25T11:46:16.387Z,98822.62
2023-04-25T11:49:05.699Z,98825.63
2023-04-25T11:51:52.660Z,98825.54
2023-04-25T11:54:39.045Z,98829.60
2023-04-25T11:57:25.745Z,98833.85
2023-04-25T12:00:18.692Z,98833.30
2023-04-25T12:03:09.999Z,98836.74
2023-04-25T12:06:04.423Z,98835.92
2023-04-25T12:09:01.204Z,98837.33
2023-04-25T12:11:49.703Z,98839.14
2023-04-25T12:14:37.262Z,98837.39
2023-04-25T12:17:23.840Z,98837.75
2023-04-25T12:20:14.053Z,98835.47
2023-04-25T12:23:00.774Z,98840.95
2023-04-25T12:25:47.802Z,98843.27
2023-04-25T12:28:34.789Z,98841.14
2023-04-25T12:31:21.743Z,98852.23
2023-04-25T12:34:08.652Z,98846.23
2023-04-25T12:36:55.197Z,98844.84
2023-04-25T12:39:41.862Z,98849.58
2023-04-25T12:42:28.439Z,98850.33
2023-04-25T12:45:16.269Z,98845.48
2023-04-25T12:48:04.137Z,98844.52
2023-04-25T12:50:52.385Z,98850.00
2023-04-25T12:53:41.148Z,98847.23
2023-04-25T12:56:28.265Z,98848.35
2023-04-25T12:59:15.030Z,98848.80
2023-04-25T13:02:02.227Z,98846.99
2023-04-25T13:04:49.042Z,98840.59
2023-04-25T13:07:36.099Z,98834.79
2023-04-25T13:10:23.195Z,98832.18
2023-04-25T13:13:10.055Z,98832.42
2023-04-25T13:15:58.570Z,98833.54
2023-04-25T13:18:45.499Z,98832.91
2023-04-25T13:21:32.927Z,98836.55
2023-04-25T13:24:19.313Z,98832.69
2023-04-25T13:27:05.677Z,98830.82
2023-04-25T13:29:53.075Z,98830.41
2023-04-25T13:32:40.453Z,98831.98
2023-04-25T13:35:27.010Z,98830.60
2023-04-25T13:38:14.527Z,98831.11
2023-04-25T13:41:01.470Z,98830.60
2023-04-25T13:43:48.022Z,98832.42
2023-04-25T13:46:46.478Z,98832.59
2023-04-25T13:49:35.233Z,98837.80
2023-04-25T13:52:21.873Z,98832.02
2023-04-25T13:55:09.976Z,98834.05
2023-04-25T13:57:56.829Z,98834.54
2023-04-25T14:00:45.847Z,98845.76
2023-04-25T14:03:32.673Z,98852.51
2023-04-25T14:06:23.263Z,98856.80
2023-04-25T14:09:10.836Z,98859.80
2023-04-25T14:11:57.614Z,98866.15
2023-04-25T14:14:44.343Z,98869.92
2023-04-25T14:17:32.890Z,98875.50
2023-04-25T14:20:21.687Z,98880.95
2023-04-25T14:23:08.647Z,98885.50
2023-04-25T14:25:55.433Z,98886.20
2023-04-25T14:28:41.831Z,98886.07
2023-04-25T14:31:29.664Z,98887.28
2023-04-25T14:34:16.514Z,98887.88
2023-04-25T14:37:05.122Z,98889.38
2023-04-25T14:39:52.212Z,98887.63
2023-04-25T14:42:40.699Z,98888.11
2023-04-25T14:45:29.166Z,98892.97
2023-04-25T14:48:18.545Z,98895.23
2023-04-25T14:51:07.447Z,98898.48
2023-04-25T14:53:56.815Z,98902.29
2023-04-25T14:56:43.314Z,98898.65
2023-04-25T14:59:30.896Z,98899.27
2023-04-25T15:02:18.369Z,98896.27
2023-04-25T15:05:06.241Z,98903.46
2023-04-25T15:07:53.992Z,98905.88
2023-04-25T15:10:40.302Z,98907.01
2023-04-25T15:13:29.153Z,98910.40
2023-04-25T15:16:16.051Z,98909.98
2023-04-25T15:19:06.212Z,98912.84
2023-04-25T15:21:52.804Z,98913.83
2023-04-25T15:24:39.733Z,98912.40
2023-04-25T15:27:28.917Z,98912.02
2023-04-25T15:30:20.405Z,98914.49
2023-04-25T15:33:06.930Z,98920.35
2023-04-25T15:35:53.700Z,98920.84
2023-04-25T15:38:41.892Z,98920.23
2023-04-25T15:41:29.255Z,98918.11
2023-04-25T15:44:18.416Z,98910.50
2023-04-25T15:47:05.472Z,98913.27
2023-04-25T15:49:52.295Z,98919.05
2023-04-25T15:52:39.189Z,98921.19
2023-04-25T15:55:26.383Z,98921.25
2023-04-25T15:58:13.314Z,98918.80
2023-04-25T16:01:00.070Z,98918.83
2023-04-25T16:03:48.019Z,98916.42
2023-04-25T16:06:34.738Z,98915.11
2023-04-25T16:09:21.652Z,98925.16
2023-04-25T16:12:11.383Z,98928.95
2023-04-25T16:14:59.085Z,98930.52
2023-04-25T16:17:45.921Z,98925.55
2023-04-25T16:20:34.011Z,98929.21
2023-04-25T16:23:21.036Z,98930.89
2023-04-25T16:26:08.665Z,98930.60
2023-04-25T16:28:55.710Z,98929.80
2023-04-25T16:31:42.865Z,98930.52
2023-04-25T16:34:30.072Z,98925.84
2023-04-25T16:37:16.552Z,98929.56
2023-04-25T16:40:03.867Z,98936.33
2023-04-25T16:42:50.708Z,98937.44
2023-04-25T16:45:37.566Z,98939.31
2023-04-25T16:48:24.074Z,98935.73
2023-04-25T16:51:10.813Z,98937.77
2023-04-25T16:54:02.402Z,98939.83
2023-04-25T16:56:49.252Z,98945.77
2023-04-25T16:59:35.661Z,98946.92
2023-04-25T17:02:22.883Z,98947.27
2023-04-25T17:05:10.234Z,98946.53
2023-04-25T17:07:58.502Z,98942.80
2023-04-25T17:10:45.423Z,98944.15
2023-04-25T17:13:33.160Z,98945.97
2023-04-25T17:16:22.718Z,98947.47
2023-04-25T17:19:09.362Z,98944.88
2023-04-25T17:21:55.833Z,98948.81
2023-04-25T17:24:43.182Z,98952.70
2023-04-25T17:27:29.876Z,98952.63
2023-04-25T17:30:16.913Z,98953.13
2023-04-25T17:33:04.040Z,98949.02
2023-04-25T17:35:51.196Z,98950.41
2023-04-25T17:38:40.914Z,98956.48
2023-04-25T17:41:28.767Z,98960.15
2023-04-25T17:44:16.316Z,98963.11
2023-04-25T17:47:06.601Z,98965.90
2023-04-25T17:49:57.063Z,98967.39
2023-04-25T17:52:44.896Z,98965.16
2023-04-25T17:55:33.995Z,98965.93
2023-04-25T17:58:21.562Z,98969.88
2023-04-25T18:01:09.725Z,98972.67
2023-04-25T18:03:56.734Z,98977.98
2023-04-25T18:06:43.608Z,98979.98
2023-04-25T18:09:33.722Z,98980.09
2023-04-25T18:12:20.588Z,98989.11
2023-04-25T18:15:08.727Z,98992.14
2023-04-25T18:17:57.336Z,98992.83
2023-04-25T18:20:45.375Z,98993.59
2023-04-25T18:23:33.387Z,98994.33
2023-04-25T18:26:20.630Z,99000.97
2023-04-25T18:29:12.088Z,99003.97
2023-04-25T18:32:01.740Z,99013.80
2023-04-25T18:34:49.749Z,99020.90
2023-04-25T18:37:36.803Z,99023.77
2023-04-25T18:40:23.673Z,99023.90
2023-04-25T18:43:11.104Z,99029.98
2023-04-25T18:45:58.235Z,99029.42
2023-04-25T18:48:46.652Z,99029.41
2023-04-25T18:51:33.139Z,99028.26
2023-04-25T18:54:20.177Z,99026.30
2023-04-25T18:57:06.999Z,99026.30
2023-04-25T18:59:53.769Z,99027.10
2023-04-25T19:02:41.106Z,99037.13
2023-04-25T19:05:33.955Z,99036.92
2023-04-25T19:08:21.140Z,99040.15
2023-04-25T19:11:20.420Z,99042.27
2023-04-25T19:14:08.486Z,99044.12
2023-04-25T19:16:58.510Z,99049.87
2023-04-25T19:19:50.089Z,99049.07
2023-04-25T19:22:37.019Z,99050.03
2023-04-25T19:25:25.247Z,99051.29
2023-04-25T19:28:13.507Z,99047.09
2023-04-25T19:31:00.871Z,99048.06
2023-04-25T19:33:47.272Z,99047.08
2023-04-25T19:36:38.424Z,99053.16
2023-04-25T19:39:25.063Z,99052.02
2023-04-25T19:42:13.546Z,99049.23
2023-04-25T19:45:00.112Z,99048.20
2023-04-25T19:47:47.608Z,99049.44
2023-04-25T19:50:34.446Z,99049.13
2023-04-25T19:53:20.888Z,99050.91
2023-04-25T19:56:09.078Z,99048.27
2023-04-25T19:58:58.973Z,99048.64
2023-04-25T20:01:49.303Z,99048.14
2023-04-25T20:04:38.043Z,99050.05
2023-04-25T20:07:24.848Z,99049.30
2023-04-25T20:10:15.803Z,99046.08
2023-04-25T20:13:02.428Z,99048.11
2023-04-25T20:15:49.781Z,99044.73
2023-04-25T20:18:36.714Z,99044.23
2023-04-25T20:21:23.503Z,99046.58
2023-04-25T20:24:11.319Z,99044.98
2023-04-25T20:26:58.337Z,99043.08
2023-04-25T20:29:45.150Z,99043.98
2023-04-25T20:32:34.051Z,99044.15
2023-04-25T20:35:22.376Z,99045.73
2023-04-25T20:38:09.783Z,99047.34
2023-04-25T20:40:57.933Z,99045.23
2023-04-25T20:43:46.696Z,99045.06
2023-04-25T20:46:35.755Z,99046.63
2023-04-25T20:49:22.808Z,99048.88
2023-04-25T20:52:09.779Z,99048.38
2023-04-25T20:54:56.399Z,99044.34
2023-04-25T20:57:42.872Z,99042.26
2023-04-25T21:00:33.745Z,99043.66
2023-04-25T21:03:20.301Z,99042.12
2023-04-25T21:06:08.236Z,99042.83
2023-04-25T21:08:54.964Z,99043.41
2023-04-25T21:11:42.114Z,99042.06
2023-04-25T21:14:28.619Z,99042.78
2023-04-25T21:17:17.282Z,99044.38
2023-04-25T21:20:09.696Z,99045.48
2023-04-25T21:22:56.458Z,99045.61
2023-04-25T21:25:42.986Z,99045.89
2023-04-25T21:28:29.245Z,99041.46
2023-04-25T21:31:15.744Z,99039.88
2023-04-25T21:34:02.642Z,99041.38
2023-04-25T21:36:50.411Z,99041.13
2023-04-25T21:39:37.026Z,99038.77
2023-04-25T21:42:23.609Z,99038.84
2023-04-25T21:45:12.485Z,99044.26
2023-04-25T21:47:59.102Z,99042.00
2023-04-25T21:50:47.102Z,99042.50
2023-04-25T21:53:33.457Z,99042.34
2023-04-25T21:56:21.053Z,99048.11
2023-04-25T21:59:07.659Z,99046.52
2023-04-25T22:01:54.614Z,99044.61
2023-04-25T22:04:47.422Z,99039.60
2023-04-25T22:07:33.931Z,99036.21
2023-04-25T22:10:21.545Z,99037.48
2023-04-25T22:13:07.985Z,99038.67
2023-04-25T22:15:54.346Z,99037.53
2023-04-25T22:18:41.588Z,99039.75
2023-04-25T22:21:28.090Z,99035.93
2023-04-25T22:24:15.141Z,99034.70
2023-04-25T22:27:02.472Z,99034.55
2023-04-25T22:29:49.335Z,99032.98
2023-04-25T22:32:36.518Z,99032.17
2023-04-25T22:35:23.227Z,99034.21
2023-04-25T22:38:11.467Z,99038.23
2023-04-25T22:40:57.918Z,99036.84
2023-04-25T22:43:44.246Z,99035.64
2023-04-25T22:46:31.084Z,99035.07
2023-04-25T22:49:17.592Z,99033.55
2023-04-25T22:52:06.861Z,99034.64
2023-04-25T22:54:53.609Z,99031.65
2023-04-25T22:57:40.811Z,99033.84
2023-04-25T23:00:29.708Z,99028.99
2023-04-25T23:03:16.265Z,99031.02
2023-04-25T23:06:03.323Z,99030.02
2023-04-25T23:08:50.494Z,99025.39
2023-04-25T23:11:38.598Z,99021.23
2023-04-25T23:14:25.503Z,99016.05
2023-04-25T23:17:12.059Z,99014.29
2023-04-25T23:19:58.820Z,99013.15
2023-04-25T23:22:44.788Z,99011.02
2023-04-25T23:25:32.173Z,99013.29
2023-04-25T23:28:19.720Z,99015.74
2023-04-25T23:31:07.669Z,99014.05
2023-04-25T23:33:54.253Z,99019.79
2023-04-25T23:36:41.206Z,99017.48
2023-04-25T23:39:28.142Z,99018.86
2023-04-25T23:42:14.726Z,99016.50
2023-04-25T23:45:01.231Z,99019.36
2023-04-25T23:47:48.193Z,99016.84
2023-04-25T23:50:35.573Z,99013.95
2023-04-25T23:53:23.972Z,99017.02
2023-04-25T23:56:14.460Z,99019.13
2023-04-25T23:59:06.135Z,99021.27
